sensor_id;sensor_type;location;lat;lon;timestamp;P1;durP1;ratioP1;P2;durP2;ratioP2
75216;SDS011;63800;51.972;5.682;2023-12-29T00:01:13;7.32;;;2.75;;
75216;SDS011;63800;51.972;5.682;2023-12-29T00:03:38;7.05;;;2.55;;
75216;SDS011;63800;51.972;5.682;2023-12-29T00:06:04;8.45;;;2.40;;
75216;SDS011;63800;51.972;5.682;2023-12-29T00:08:30;7.00;;;2.47;;
75216;SDS011;63800;51.972;5.682;2023-12-29T00:10:56;8.13;;;2.67;;
75216;SDS011;63800;51.972;5.682;2023-12-29T00:13:22;5.80;;;2.42;;
75216;SDS011;63800;51.972;5.682;2023-12-29T00:15:52;12.10;;;2.63;;
75216;SDS011;63800;51.972;5.682;2023-12-29T00:18:18;11.77;;;2.60;;
75216;SDS011;63800;51.972;5.682;2023-12-29T00:20:43;6.32;;;2.30;;
75216;SDS011;63800;51.972;5.682;2023-12-29T00:23:09;9.23;;;2.40;;
75216;SDS011;63800;51.972;5.682;2023-12-29T00:25:36;8.88;;;2.42;;
75216;SDS011;63800;51.972;5.682;2023-12-29T00:28:02;8.48;;;2.92;;
75216;SDS011;63800;51.972;5.682;2023-12-29T00:30:28;6.90;;;2.30;;
75216;SDS011;63800;51.972;5.682;2023-12-29T00:32:54;14.25;;;2.55;;
75216;SDS011;63800;51.972;5.682;2023-12-29T00:35:20;6.68;;;2.47;;
75216;SDS011;63800;51.972;5.682;2023-12-29T00:37:46;6.97;;;2.40;;
75216;SDS011;63800;51.972;5.682;2023-12-29T00:40:11;6.07;;;2.30;;
75216;SDS011;63800;51.972;5.682;2023-12-29T00:42:37;7.88;;;2.40;;
75216;SDS011;63800;51.972;5.682;2023-12-29T00:45:03;6.15;;;2.35;;
75216;SDS011;63800;51.972;5.682;2023-12-29T00:47:30;11.52;;;2.83;;
75216;SDS011;63800;51.972;5.682;2023-12-29T00:49:55;8.55;;;2.42;;
75216;SDS011;63800;51.972;5.682;2023-12-29T00:52:21;8.07;;;2.35;;
75216;SDS011;63800;51.972;5.682;2023-12-29T00:54:47;8.68;;;2.30;;
75216;SDS011;63800;51.972;5.682;2023-12-29T00:57:12;7.97;;;2.55;;
75216;SDS011;63800;51.972;5.682;2023-12-29T00:59:38;7.18;;;2.75;;
75216;SDS011;63800;51.972;5.682;2023-12-29T01:02:05;10.30;;;2.75;;
75216;SDS011;63800;51.972;5.682;2023-12-29T01:04:30;5.25;;;2.50;;
75216;SDS011;63800;51.972;5.682;2023-12-29T01:06:56;10.00;;;2.85;;
75216;SDS011;63800;51.972;5.682;2023-12-29T01:09:21;11.07;;;2.75;;
75216;SDS011;63800;51.972;5.682;2023-12-29T01:11:46;6.43;;;2.67;;
75216;SDS011;63800;51.972;5.682;2023-12-29T01:14:12;9.82;;;2.40;;
75216;SDS011;63800;51.972;5.682;2023-12-29T01:16:39;6.93;;;2.50;;
75216;SDS011;63800;51.972;5.682;2023-12-29T01:19:05;7.75;;;2.75;;
75216;SDS011;63800;51.972;5.682;2023-12-29T01:21:30;10.07;;;3.22;;
75216;SDS011;63800;51.972;5.682;2023-12-29T01:23:59;4.43;;;2.35;;
75216;SDS011;63800;51.972;5.682;2023-12-29T01:26:25;8.63;;;2.65;;
75216;SDS011;63800;51.972;5.682;2023-12-29T01:28:51;6.40;;;3.03;;
75216;SDS011;63800;51.972;5.682;2023-12-29T01:31:16;9.25;;;2.50;;
75216;SDS011;63800;51.972;5.682;2023-12-29T01:33:42;4.65;;;2.30;;
75216;SDS011;63800;51.972;5.682;2023-12-29T01:36:07;5.93;;;2.53;;
75216;SDS011;63800;51.972;5.682;2023-12-29T01:38:33;9.52;;;2.78;;
75216;SDS011;63800;51.972;5.682;2023-12-29T01:40:58;5.05;;;2.55;;
75216;SDS011;63800;51.972;5.682;2023-12-29T01:43:24;9.15;;;2.47;;
75216;SDS011;63800;51.972;5.682;2023-12-29T01:45:49;7.10;;;2.58;;
75216;SDS011;63800;51.972;5.682;2023-12-29T01:48:14;9.07;;;3.83;;
75216;SDS011;63800;51.972;5.682;2023-12-29T01:50:40;9.98;;;2.85;;
75216;SDS011;63800;51.972;5.682;2023-12-29T01:53:06;5.97;;;2.75;;
75216;SDS011;63800;51.972;5.682;2023-12-29T01:55:32;7.63;;;3.13;;
75216;SDS011;63800;51.972;5.682;2023-12-29T01:57:58;6.07;;;2.70;;
75216;SDS011;63800;51.972;5.682;2023-12-29T02:00:24;9.98;;;2.78;;
75216;SDS011;63800;51.972;5.682;2023-12-29T02:02:50;9.13;;;2.72;;
75216;SDS011;63800;51.972;5.682;2023-12-29T02:05:16;8.38;;;2.90;;
75216;SDS011;63800;51.972;5.682;2023-12-29T02:07:45;10.55;;;2.72;;
75216;SDS011;63800;51.972;5.682;2023-12-29T02:10:11;8.27;;;2.45;;
75216;SDS011;63800;51.972;5.682;2023-12-29T02:12:40;9.25;;;2.97;;
75216;SDS011;63800;51.972;5.682;2023-12-29T02:15:06;8.48;;;2.85;;
75216;SDS011;63800;51.972;5.682;2023-12-29T02:17:38;6.03;;;2.63;;
75216;SDS011;63800;51.972;5.682;2023-12-29T02:20:07;5.15;;;2.47;;
75216;SDS011;63800;51.972;5.682;2023-12-29T02:22:34;8.43;;;2.85;;
75216;SDS011;63800;51.972;5.682;2023-12-29T02:24:59;8.60;;;2.45;;
75216;SDS011;63800;51.972;5.682;2023-12-29T02:27:46;9.60;;;3.20;;
75216;SDS011;63800;51.972;5.682;2023-12-29T02:30:26;7.07;;;2.58;;
75216;SDS011;63800;51.972;5.682;2023-12-29T02:33:00;5.75;;;2.55;;
75216;SDS011;63800;51.972;5.682;2023-12-29T02:35:30;7.88;;;3.22;;
75216;SDS011;63800;51.972;5.682;2023-12-29T02:37:59;6.85;;;2.92;;
75216;SDS011;63800;51.972;5.682;2023-12-29T02:40:25;6.45;;;2.53;;
75216;SDS011;63800;51.972;5.682;2023-12-29T02:42:51;11.68;;;3.33;;
75216;SDS011;63800;51.972;5.682;2023-12-29T02:45:16;8.70;;;2.65;;
75216;SDS011;63800;51.972;5.682;2023-12-29T02:47:42;6.90;;;2.72;;
75216;SDS011;63800;51.972;5.682;2023-12-29T02:50:09;7.72;;;3.00;;
75216;SDS011;63800;51.972;5.682;2023-12-29T02:52:35;5.70;;;3.17;;
75216;SDS011;63800;51.972;5.682;2023-12-29T02:55:00;7.72;;;2.90;;
75216;SDS011;63800;51.972;5.682;2023-12-29T02:57:25;8.05;;;2.95;;
75216;SDS011;63800;51.972;5.682;2023-12-29T02:59:51;8.82;;;2.65;;
75216;SDS011;63800;51.972;5.682;2023-12-29T03:02:16;7.82;;;2.70;;
75216;SDS011;63800;51.972;5.682;2023-12-29T03:04:42;8.48;;;3.10;;
75216;SDS011;63800;51.972;5.682;2023-12-29T03:07:07;6.95;;;2.42;;
75216;SDS011;63800;51.972;5.682;2023-12-29T03:09:33;10.90;;;2.78;;
75216;SDS011;63800;51.972;5.682;2023-12-29T03:11:59;11.93;;;3.50;;
75216;SDS011;63800;51.972;5.682;2023-12-29T03:14:24;9.30;;;2.40;;
75216;SDS011;63800;51.972;5.682;2023-12-29T03:16:50;8.80;;;2.92;;
75216;SDS011;63800;51.972;5.682;2023-12-29T03:19:15;6.45;;;2.30;;
75216;SDS011;63800;51.972;5.682;2023-12-29T03:21:41;10.20;;;2.95;;
75216;SDS011;63800;51.972;5.682;2023-12-29T03:24:06;13.82;;;3.75;;
75216;SDS011;63800;51.972;5.682;2023-12-29T03:26:32;7.90;;;2.58;;
75216;SDS011;63800;51.972;5.682;2023-12-29T03:28:57;7.07;;;2.53;;
75216;SDS011;63800;51.972;5.682;2023-12-29T03:31:23;8.07;;;2.70;;
75216;SDS011;63800;51.972;5.682;2023-12-29T03:33:48;9.05;;;2.70;;
75216;SDS011;63800;51.972;5.682;2023-12-29T03:36:14;8.50;;;2.90;;
75216;SDS011;63800;51.972;5.682;2023-12-29T03:38:39;10.55;;;2.50;;
75216;SDS011;63800;51.972;5.682;2023-12-29T03:41:04;9.00;;;2.85;;
75216;SDS011;63800;51.972;5.682;2023-12-29T03:43:30;11.77;;;2.60;;
75216;SDS011;63800;51.972;5.682;2023-12-29T03:45:55;10.82;;;2.75;;
75216;SDS011;63800;51.972;5.682;2023-12-29T03:48:21;12.73;;;3.22;;
75216;SDS011;63800;51.972;5.682;2023-12-29T03:50:46;11.73;;;2.78;;
75216;SDS011;63800;51.972;5.682;2023-12-29T03:53:12;11.15;;;2.80;;
75216;SDS011;63800;51.972;5.682;2023-12-29T03:55:39;11.15;;;3.30;;
75216;SDS011;63800;51.972;5.682;2023-12-29T03:58:05;13.85;;;2.92;;
75216;SDS011;63800;51.972;5.682;2023-12-29T04:00:30;12.60;;;3.40;;
75216;SDS011;63800;51.972;5.682;2023-12-29T04:02:56;7.75;;;2.75;;
75216;SDS011;63800;51.972;5.682;2023-12-29T04:05:22;11.20;;;2.85;;
75216;SDS011;63800;51.972;5.682;2023-12-29T04:07:47;8.10;;;2.60;;
75216;SDS011;63800;51.972;5.682;2023-12-29T04:10:12;11.05;;;3.13;;
75216;SDS011;63800;51.972;5.682;2023-12-29T04:12:38;8.93;;;2.83;;
75216;SDS011;63800;51.972;5.682;2023-12-29T04:15:04;11.85;;;3.50;;
75216;SDS011;63800;51.972;5.682;2023-12-29T04:17:30;9.65;;;2.78;;
75216;SDS011;63800;51.972;5.682;2023-12-29T04:19:55;10.95;;;2.80;;
75216;SDS011;63800;51.972;5.682;2023-12-29T04:22:21;13.95;;;3.22;;
75216;SDS011;63800;51.972;5.682;2023-12-29T04:24:47;11.13;;;3.55;;
75216;SDS011;63800;51.972;5.682;2023-12-29T04:27:13;11.52;;;3.08;;
75216;SDS011;63800;51.972;5.682;2023-12-29T04:29:39;12.27;;;3.17;;
75216;SDS011;63800;51.972;5.682;2023-12-29T04:32:05;11.75;;;3.80;;
75216;SDS011;63800;51.972;5.682;2023-12-29T04:34:30;12.93;;;2.90;;
75216;SDS011;63800;51.972;5.682;2023-12-29T04:36:56;13.25;;;2.72;;
75216;SDS011;63800;51.972;5.682;2023-12-29T04:39:22;11.23;;;2.88;;
75216;SDS011;63800;51.972;5.682;2023-12-29T04:41:47;8.90;;;3.15;;
75216;SDS011;63800;51.972;5.682;2023-12-29T04:44:12;8.10;;;3.28;;
75216;SDS011;63800;51.972;5.682;2023-12-29T04:46:38;12.10;;;2.92;;
75216;SDS011;63800;51.972;5.682;2023-12-29T04:49:03;10.90;;;2.70;;
75216;SDS011;63800;51.972;5.682;2023-12-29T04:51:29;10.35;;;3.22;;
75216;SDS011;63800;51.972;5.682;2023-12-29T04:53:54;11.88;;;3.50;;
75216;SDS011;63800;51.972;5.682;2023-12-29T04:56:20;12.80;;;2.72;;
75216;SDS011;63800;51.972;5.682;2023-12-29T04:58:45;13.35;;;2.88;;
75216;SDS011;63800;51.972;5.682;2023-12-29T05:01:11;10.52;;;3.00;;
75216;SDS011;63800;51.972;5.682;2023-12-29T05:03:36;10.82;;;2.90;;
75216;SDS011;63800;51.972;5.682;2023-12-29T05:06:02;9.95;;;2.95;;
75216;SDS011;63800;51.972;5.682;2023-12-29T05:08:27;9.32;;;3.28;;
75216;SDS011;63800;51.972;5.682;2023-12-29T05:10:53;11.32;;;3.05;;
75216;SDS011;63800;51.972;5.682;2023-12-29T05:13:18;10.63;;;3.28;;
75216;SDS011;63800;51.972;5.682;2023-12-29T05:15:44;12.50;;;3.05;;
75216;SDS011;63800;51.972;5.682;2023-12-29T05:18:09;12.30;;;2.95;;
75216;SDS011;63800;51.972;5.682;2023-12-29T05:20:34;10.35;;;3.10;;
75216;SDS011;63800;51.972;5.682;2023-12-29T05:23:00;9.45;;;3.28;;
75216;SDS011;63800;51.972;5.682;2023-12-29T05:25:25;9.13;;;2.67;;
75216;SDS011;63800;51.972;5.682;2023-12-29T05:27:51;12.13;;;3.05;;
75216;SDS011;63800;51.972;5.682;2023-12-29T05:30:16;11.52;;;2.83;;
75216;SDS011;63800;51.972;5.682;2023-12-29T05:32:42;14.48;;;3.28;;
75216;SDS011;63800;51.972;5.682;2023-12-29T05:35:07;13.52;;;3.20;;
75216;SDS011;63800;51.972;5.682;2023-12-29T05:37:33;13.77;;;3.33;;
75216;SDS011;63800;51.972;5.682;2023-12-29T05:39:59;11.15;;;2.88;;
75216;SDS011;63800;51.972;5.682;2023-12-29T05:42:24;16.02;;;3.15;;
75216;SDS011;63800;51.972;5.682;2023-12-29T05:44:50;10.57;;;2.70;;
75216;SDS011;63800;51.972;5.682;2023-12-29T05:47:17;9.18;;;3.10;;
75216;SDS011;63800;51.972;5.682;2023-12-29T05:49:43;11.43;;;2.58;;
75216;SDS011;63800;51.972;5.682;2023-12-29T05:52:08;14.23;;;2.80;;
75216;SDS011;63800;51.972;5.682;2023-12-29T05:54:34;9.50;;;3.38;;
75216;SDS011;63800;51.972;5.682;2023-12-29T05:56:59;10.27;;;2.70;;
75216;SDS011;63800;51.972;5.682;2023-12-29T05:59:25;15.85;;;3.08;;
75216;SDS011;63800;51.972;5.682;2023-12-29T06:01:51;9.82;;;2.90;;
75216;SDS011;63800;51.972;5.682;2023-12-29T06:04:16;11.02;;;2.88;;
75216;SDS011;63800;51.972;5.682;2023-12-29T06:06:42;11.77;;;3.10;;
75216;SDS011;63800;51.972;5.682;2023-12-29T06:09:10;14.70;;;2.72;;
75216;SDS011;63800;51.972;5.682;2023-12-29T06:11:36;12.13;;;2.97;;
75216;SDS011;63800;51.972;5.682;2023-12-29T06:14:01;9.80;;;3.08;;
75216;SDS011;63800;51.972;5.682;2023-12-29T06:16:27;9.73;;;3.30;;
75216;SDS011;63800;51.972;5.682;2023-12-29T06:18:54;9.30;;;2.47;;
75216;SDS011;63800;51.972;5.682;2023-12-29T06:21:20;13.20;;;2.95;;
75216;SDS011;63800;51.972;5.682;2023-12-29T06:23:45;10.32;;;2.75;;
75216;SDS011;63800;51.972;5.682;2023-12-29T06:26:17;10.60;;;3.13;;
75216;SDS011;63800;51.972;5.682;2023-12-29T06:28:45;8.65;;;2.83;;
75216;SDS011;63800;51.972;5.682;2023-12-29T06:31:12;9.32;;;2.75;;
75216;SDS011;63800;51.972;5.682;2023-12-29T06:33:41;11.45;;;3.08;;
75216;SDS011;63800;51.972;5.682;2023-12-29T06:36:08;11.35;;;3.30;;
75216;SDS011;63800;51.972;5.682;2023-12-29T06:38:34;10.85;;;2.60;;
75216;SDS011;63800;51.972;5.682;2023-12-29T06:41:00;11.00;;;3.00;;
75216;SDS011;63800;51.972;5.682;2023-12-29T06:43:26;7.55;;;2.40;;
75216;SDS011;63800;51.972;5.682;2023-12-29T06:45:52;10.60;;;2.42;;
75216;SDS011;63800;51.972;5.682;2023-12-29T06:48:17;10.50;;;2.60;;
75216;SDS011;63800;51.972;5.682;2023-12-29T06:50:43;8.55;;;2.80;;
75216;SDS011;63800;51.972;5.682;2023-12-29T06:53:08;9.98;;;2.78;;
75216;SDS011;63800;51.972;5.682;2023-12-29T06:55:34;10.70;;;2.75;;
75216;SDS011;63800;51.972;5.682;2023-12-29T06:57:59;7.47;;;2.40;;
75216;SDS011;63800;51.972;5.682;2023-12-29T07:00:25;7.63;;;2.35;;
75216;SDS011;63800;51.972;5.682;2023-12-29T07:02:50;10.55;;;2.90;;
75216;SDS011;63800;51.972;5.682;2023-12-29T07:05:15;9.38;;;2.63;;
75216;SDS011;63800;51.972;5.682;2023-12-29T07:07:41;8.45;;;2.47;;
75216;SDS011;63800;51.972;5.682;2023-12-29T07:10:06;10.70;;;2.50;;
75216;SDS011;63800;51.972;5.682;2023-12-29T07:12:33;9.18;;;3.00;;
75216;SDS011;63800;51.972;5.682;2023-12-29T07:14:58;6.93;;;2.33;;
75216;SDS011;63800;51.972;5.682;2023-12-29T07:17:24;7.35;;;2.45;;
75216;SDS011;63800;51.972;5.682;2023-12-29T07:19:49;6.32;;;2.60;;
75216;SDS011;63800;51.972;5.682;2023-12-29T07:22:15;6.28;;;2.40;;
75216;SDS011;63800;51.972;5.682;2023-12-29T07:24:40;6.72;;;2.65;;
75216;SDS011;63800;51.972;5.682;2023-12-29T07:27:06;9.35;;;2.70;;
75216;SDS011;63800;51.972;5.682;2023-12-29T07:29:32;10.55;;;2.70;;
75216;SDS011;63800;51.972;5.682;2023-12-29T07:31:58;9.13;;;3.58;;
75216;SDS011;63800;51.972;5.682;2023-12-29T07:34:24;12.82;;;4.70;;
75216;SDS011;63800;51.972;5.682;2023-12-29T07:36:50;7.60;;;3.95;;
75216;SDS011;63800;51.972;5.682;2023-12-29T07:39:15;10.13;;;4.40;;
75216;SDS011;63800;51.972;5.682;2023-12-29T07:41:41;9.15;;;4.93;;
75216;SDS011;63800;51.972;5.682;2023-12-29T07:44:07;11.27;;;3.92;;
75216;SDS011;63800;51.972;5.682;2023-12-29T07:46:33;9.30;;;3.30;;
75216;SDS011;63800;51.972;5.682;2023-12-29T07:48:58;11.55;;;3.42;;
75216;SDS011;63800;51.972;5.682;2023-12-29T07:51:24;8.63;;;3.08;;
75216;SDS011;63800;51.972;5.682;2023-12-29T07:53:49;8.15;;;3.15;;
75216;SDS011;63800;51.972;5.682;2023-12-29T07:56:15;7.72;;;3.22;;
75216;SDS011;63800;51.972;5.682;2023-12-29T07:58:40;11.60;;;3.20;;
75216;SDS011;63800;51.972;5.682;2023-12-29T08:01:05;9.18;;;3.35;;
75216;SDS011;63800;51.972;5.682;2023-12-29T08:03:31;7.10;;;3.22;;
75216;SDS011;63800;51.972;5.682;2023-12-29T08:05:56;9.70;;;3.30;;
75216;SDS011;63800;51.972;5.682;2023-12-29T08:08:22;8.82;;;3.67;;
75216;SDS011;63800;51.972;5.682;2023-12-29T08:10:47;3.65;;;3.10;;
75216;SDS011;63800;51.972;5.682;2023-12-29T08:13:13;8.30;;;3.60;;
75216;SDS011;63800;51.972;5.682;2023-12-29T08:15:38;9.02;;;3.47;;
75216;SDS011;63800;51.972;5.682;2023-12-29T08:18:04;9.75;;;3.65;;
75216;SDS011;63800;51.972;5.682;2023-12-29T08:20:30;4.68;;;3.03;;
75216;SDS011;63800;51.972;5.682;2023-12-29T08:22:55;7.03;;;3.15;;
75216;SDS011;63800;51.972;5.682;2023-12-29T08:25:22;7.93;;;3.20;;
75216;SDS011;63800;51.972;5.682;2023-12-29T08:27:47;7.28;;;3.30;;
75216;SDS011;63800;51.972;5.682;2023-12-29T08:30:13;5.25;;;2.70;;
75216;SDS011;63800;51.972;5.682;2023-12-29T08:32:39;6.65;;;3.17;;
75216;SDS011;63800;51.972;5.682;2023-12-29T08:35:04;9.15;;;3.35;;
75216;SDS011;63800;51.972;5.682;2023-12-29T08:37:31;6.78;;;3.35;;
75216;SDS011;63800;51.972;5.682;2023-12-29T08:39:58;8.20;;;2.92;;
75216;SDS011;63800;51.972;5.682;2023-12-29T08:42:24;8.07;;;3.22;;
75216;SDS011;63800;51.972;5.682;2023-12-29T08:44:49;7.38;;;4.10;;
75216;SDS011;63800;51.972;5.682;2023-12-29T08:47:15;8.63;;;3.58;;
75216;SDS011;63800;51.972;5.682;2023-12-29T08:49:40;9.00;;;4.25;;
75216;SDS011;63800;51.972;5.682;2023-12-29T08:52:07;10.52;;;4.88;;
75216;SDS011;63800;51.972;5.682;2023-12-29T08:54:34;7.85;;;3.45;;
75216;SDS011;63800;51.972;5.682;2023-12-29T08:56:59;8.07;;;3.40;;
75216;SDS011;63800;51.972;5.682;2023-12-29T08:59:25;6.97;;;3.70;;
75216;SDS011;63800;51.972;5.682;2023-12-29T09:01:50;6.43;;;3.10;;
75216;SDS011;63800;51.972;5.682;2023-12-29T09:04:16;9.80;;;3.53;;
75216;SDS011;63800;51.972;5.682;2023-12-29T09:06:41;7.28;;;3.45;;
75216;SDS011;63800;51.972;5.682;2023-12-29T09:09:07;6.63;;;2.75;;
75216;SDS011;63800;51.972;5.682;2023-12-29T09:11:37;5.47;;;2.67;;
75216;SDS011;63800;51.972;5.682;2023-12-29T09:14:03;8.88;;;3.20;;
75216;SDS011;63800;51.972;5.682;2023-12-29T09:16:28;8.27;;;2.80;;
75216;SDS011;63800;51.972;5.682;2023-12-29T09:18:54;8.40;;;2.70;;
75216;SDS011;63800;51.972;5.682;2023-12-29T09:21:19;5.80;;;2.45;;
75216;SDS011;63800;51.972;5.682;2023-12-29T09:23:44;5.25;;;2.55;;
75216;SDS011;63800;51.972;5.682;2023-12-29T09:26:10;3.75;;;2.45;;
75216;SDS011;63800;51.972;5.682;2023-12-29T09:28:36;6.22;;;2.65;;
75216;SDS011;63800;51.972;5.682;2023-12-29T09:31:02;4.00;;;2.10;;
75216;SDS011;63800;51.972;5.682;2023-12-29T09:33:27;6.55;;;2.53;;
75216;SDS011;63800;51.972;5.682;2023-12-29T09:35:53;6.60;;;2.30;;
75216;SDS011;63800;51.972;5.682;2023-12-29T09:38:18;4.25;;;2.60;;
75216;SDS011;63800;51.972;5.682;2023-12-29T09:40:45;6.45;;;2.20;;
75216;SDS011;63800;51.972;5.682;2023-12-29T09:43:11;6.43;;;2.38;;
75216;SDS011;63800;51.972;5.682;2023-12-29T09:45:38;4.53;;;2.13;;
75216;SDS011;63800;51.972;5.682;2023-12-29T09:48:08;6.50;;;2.33;;
75216;SDS011;63800;51.972;5.682;2023-12-29T09:50:38;5.18;;;2.25;;
75216;SDS011;63800;51.972;5.682;2023-12-29T09:53:04;4.70;;;2.28;;
75216;SDS011;63800;51.972;5.682;2023-12-29T09:55:31;3.83;;;2.42;;
75216;SDS011;63800;51.972;5.682;2023-12-29T09:57:58;3.97;;;2.50;;
75216;SDS011;63800;51.972;5.682;2023-12-29T10:00:25;3.75;;;1.98;;
75216;SDS011;63800;51.972;5.682;2023-12-29T10:02:51;5.35;;;2.28;;
75216;SDS011;63800;51.972;5.682;2023-12-29T10:05:18;4.93;;;2.30;;
75216;SDS011;63800;51.972;5.682;2023-12-29T10:07:44;6.32;;;2.63;;
75216;SDS011;63800;51.972;5.682;2023-12-29T10:10:14;3.72;;;2.20;;
75216;SDS011;63800;51.972;5.682;2023-12-29T10:12:41;5.03;;;2.63;;
75216;SDS011;63800;51.972;5.682;2023-12-29T10:15:21;5.25;;;2.35;;
75216;SDS011;63800;51.972;5.682;2023-12-29T10:18:07;4.28;;;2.25;;
75216;SDS011;63800;51.972;5.682;2023-12-29T10:23:18;4.63;;;2.72;;
75216;SDS011;63800;51.972;5.682;2023-12-29T10:25:48;5.85;;;2.80;;
75216;SDS011;63800;51.972;5.682;2023-12-29T10:28:14;3.83;;;2.45;;
75216;SDS011;63800;51.972;5.682;2023-12-29T10:30:42;4.80;;;2.58;;
75216;SDS011;63800;51.972;5.682;2023-12-29T10:33:07;4.85;;;2.80;;
75216;SDS011;63800;51.972;5.682;2023-12-29T10:35:35;4.00;;;2.60;;
75216;SDS011;63800;51.972;5.682;2023-12-29T10:38:09;3.13;;;2.33;;
75216;SDS011;63800;51.972;5.682;2023-12-29T10:40:38;4.18;;;2.47;;
75216;SDS011;63800;51.972;5.682;2023-12-29T10:43:04;3.85;;;2.30;;
75216;SDS011;63800;51.972;5.682;2023-12-29T10:45:32;4.57;;;2.50;;
75216;SDS011;63800;51.972;5.682;2023-12-29T10:48:01;4.25;;;2.53;;
75216;SDS011;63800;51.972;5.682;2023-12-29T10:50:27;4.35;;;2.20;;
75216;SDS011;63800;51.972;5.682;2023-12-29T10:53:11;2.38;;;2.15;;
75216;SDS011;63800;51.972;5.682;2023-12-29T10:55:43;2.28;;;2.00;;
75216;SDS011;63800;51.972;5.682;2023-12-29T10:58:08;4.25;;;2.30;;
75216;SDS011;63800;51.972;5.682;2023-12-29T11:00:34;3.33;;;2.28;;
75216;SDS011;63800;51.972;5.682;2023-12-29T11:02:59;3.80;;;2.35;;
75216;SDS011;63800;51.972;5.682;2023-12-29T11:05:25;5.00;;;1.98;;
75216;SDS011;63800;51.972;5.682;2023-12-29T11:07:52;4.35;;;2.03;;
75216;SDS011;63800;51.972;5.682;2023-12-29T11:10:20;3.53;;;2.25;;
75216;SDS011;63800;51.972;5.682;2023-12-29T11:12:47;4.63;;;2.20;;
75216;SDS011;63800;51.972;5.682;2023-12-29T11:15:13;4.95;;;2.50;;
75216;SDS011;63800;51.972;5.682;2023-12-29T11:17:41;3.35;;;2.10;;
75216;SDS011;63800;51.972;5.682;2023-12-29T11:20:14;3.60;;;2.35;;
75216;SDS011;63800;51.972;5.682;2023-12-29T11:22:41;4.43;;;2.30;;
75216;SDS011;63800;51.972;5.682;2023-12-29T11:25:08;5.47;;;2.65;;
75216;SDS011;63800;51.972;5.682;2023-12-29T11:27:34;5.90;;;2.70;;
75216;SDS011;63800;51.972;5.682;2023-12-29T11:30:01;6.53;;;2.10;;
75216;SDS011;63800;51.972;5.682;2023-12-29T11:41:22;6.68;;;2.20;;
75216;SDS011;63800;51.972;5.682;2023-12-29T11:43:43;6.70;;;2.20;;
75216;SDS011;63800;51.972;5.682;2023-12-29T11:46:32;4.63;;;1.95;;
75216;SDS011;63800;51.972;5.682;2023-12-29T11:48:57;6.38;;;1.77;;
75216;SDS011;63800;51.972;5.682;2023-12-29T11:53:55;5.18;;;1.90;;
75216;SDS011;63800;51.972;5.682;2023-12-29T11:56:20;5.82;;;2.10;;
75216;SDS011;63800;51.972;5.682;2023-12-29T11:58:46;5.43;;;1.88;;
75216;SDS011;63800;51.972;5.682;2023-12-29T12:01:11;6.20;;;2.00;;
75216;SDS011;63800;51.972;5.682;2023-12-29T12:03:37;5.57;;;1.80;;
75216;SDS011;63800;51.972;5.682;2023-12-29T12:06:02;3.67;;;2.00;;
75216;SDS011;63800;51.972;5.682;2023-12-29T12:08:29;5.70;;;2.10;;
75216;SDS011;63800;51.972;5.682;2023-12-29T12:13:59;8.00;;;1.80;;
75216;SDS011;63800;51.972;5.682;2023-12-29T12:19:19;3.25;;;2.00;;
75216;SDS011;63800;51.972;5.682;2023-12-29T12:21:45;6.65;;;2.00;;
75216;SDS011;63800;51.972;5.682;2023-12-29T12:24:13;5.05;;;2.05;;
75216;SDS011;63800;51.972;5.682;2023-12-29T12:26:39;5.38;;;1.70;;
75216;SDS011;63800;51.972;5.682;2023-12-29T12:29:05;8.73;;;2.63;;
75216;SDS011;63800;51.972;5.682;2023-12-29T12:31:32;5.10;;;1.60;;
75216;SDS011;63800;51.972;5.682;2023-12-29T12:33:58;8.75;;;2.10;;
75216;SDS011;63800;51.972;5.682;2023-12-29T12:36:27;5.43;;;1.90;;
75216;SDS011;63800;51.972;5.682;2023-12-29T12:38:53;5.35;;;2.17;;
75216;SDS011;63800;51.972;5.682;2023-12-29T12:41:23;7.10;;;2.15;;
75216;SDS011;63800;51.972;5.682;2023-12-29T12:43:56;7.43;;;2.00;;
75216;SDS011;63800;51.972;5.682;2023-12-29T12:46:22;6.13;;;1.70;;
75216;SDS011;63800;51.972;5.682;2023-12-29T12:48:51;6.13;;;1.85;;
75216;SDS011;63800;51.972;5.682;2023-12-29T12:51:19;7.13;;;2.15;;
75216;SDS011;63800;51.972;5.682;2023-12-29T12:53:46;9.20;;;2.10;;
75216;SDS011;63800;51.972;5.682;2023-12-29T12:56:13;12.15;;;2.45;;
75216;SDS011;63800;51.972;5.682;2023-12-29T12:58:39;7.07;;;1.80;;
75216;SDS011;63800;51.972;5.682;2023-12-29T13:01:05;7.28;;;1.73;;
75216;SDS011;63800;51.972;5.682;2023-12-29T13:03:31;11.45;;;2.55;;
75216;SDS011;63800;51.972;5.682;2023-12-29T13:05:57;6.25;;;1.73;;
75216;SDS011;63800;51.972;5.682;2023-12-29T13:08:24;8.43;;;2.33;;
75216;SDS011;63800;51.972;5.682;2023-12-29T13:10:50;9.13;;;2.38;;
75216;SDS011;63800;51.972;5.682;2023-12-29T13:13:16;8.65;;;2.17;;
75216;SDS011;63800;51.972;5.682;2023-12-29T13:15:49;8.27;;;2.53;;
75216;SDS011;63800;51.972;5.682;2023-12-29T13:18:17;7.72;;;2.20;;
75216;SDS011;63800;51.972;5.682;2023-12-29T13:20:51;9.73;;;2.22;;
75216;SDS011;63800;51.972;5.682;2023-12-29T13:23:17;11.25;;;2.47;;
75216;SDS011;63800;51.972;5.682;2023-12-29T13:25:43;10.43;;;3.15;;
75216;SDS011;63800;51.972;5.682;2023-12-29T13:28:11;9.80;;;2.22;;
75216;SDS011;63800;51.972;5.682;2023-12-29T13:30:36;7.13;;;2.70;;
75216;SDS011;63800;51.972;5.682;2023-12-29T13:33:06;7.53;;;2.58;;
75216;SDS011;63800;51.972;5.682;2023-12-29T13:35:37;3.83;;;1.98;;
75216;SDS011;63800;51.972;5.682;2023-12-29T13:38:17;8.82;;;3.28;;
75216;SDS011;63800;51.972;5.682;2023-12-29T13:40:55;9.30;;;2.85;;
75216;SDS011;63800;51.972;5.682;2023-12-29T13:43:26;8.85;;;3.30;;
75216;SDS011;63800;51.972;5.682;2023-12-29T13:45:54;7.25;;;2.28;;
75216;SDS011;63800;51.972;5.682;2023-12-29T13:48:20;4.53;;;2.10;;
75216;SDS011;63800;51.972;5.682;2023-12-29T13:50:47;11.93;;;2.92;;
75216;SDS011;63800;51.972;5.682;2023-12-29T13:53:19;8.98;;;2.78;;
75216;SDS011;63800;51.972;5.682;2023-12-29T13:55:46;10.38;;;2.60;;
75216;SDS011;63800;51.972;5.682;2023-12-29T13:58:12;10.73;;;2.38;;
75216;SDS011;63800;51.972;5.682;2023-12-29T14:00:39;8.10;;;2.63;;
75216;SDS011;63800;51.972;5.682;2023-12-29T14:03:06;9.73;;;2.78;;
75216;SDS011;63800;51.972;5.682;2023-12-29T14:10:35;8.30;;;2.50;;
75216;SDS011;63800;51.972;5.682;2023-12-29T14:13:08;7.20;;;2.47;;
75216;SDS011;63800;51.972;5.682;2023-12-29T14:15:38;9.65;;;3.03;;
75216;SDS011;63800;51.972;5.682;2023-12-29T14:18:10;12.80;;;3.03;;
75216;SDS011;63800;51.972;5.682;2023-12-29T14:20:47;11.50;;;2.70;;
75216;SDS011;63800;51.972;5.682;2023-12-29T14:23:12;7.32;;;2.40;;
75216;SDS011;63800;51.972;5.682;2023-12-29T14:25:38;7.82;;;2.42;;
75216;SDS011;63800;51.972;5.682;2023-12-29T14:28:14;7.78;;;2.80;;
75216;SDS011;63800;51.972;5.682;2023-12-29T14:30:41;8.43;;;2.70;;
75216;SDS011;63800;51.972;5.682;2023-12-29T14:33:06;8.18;;;2.70;;
75216;SDS011;63800;51.972;5.682;2023-12-29T14:35:32;8.80;;;2.67;;
75216;SDS011;63800;51.972;5.682;2023-12-29T14:37:58;7.15;;;2.90;;
75216;SDS011;63800;51.972;5.682;2023-12-29T14:40:24;8.40;;;2.85;;
75216;SDS011;63800;51.972;5.682;2023-12-29T14:42:49;9.27;;;2.88;;
75216;SDS011;63800;51.972;5.682;2023-12-29T14:45:15;8.77;;;3.33;;
75216;SDS011;63800;51.972;5.682;2023-12-29T14:47:40;9.40;;;3.50;;
75216;SDS011;63800;51.972;5.682;2023-12-29T14:50:06;4.38;;;2.53;;
75216;SDS011;63800;51.972;5.682;2023-12-29T14:52:31;8.52;;;2.72;;
75216;SDS011;63800;51.972;5.682;2023-12-29T14:54:57;8.60;;;3.30;;
75216;SDS011;63800;51.972;5.682;2023-12-29T14:57:22;7.63;;;2.83;;
75216;SDS011;63800;51.972;5.682;2023-12-29T14:59:48;5.72;;;3.28;;
75216;SDS011;63800;51.972;5.682;2023-12-29T15:02:14;7.07;;;2.80;;
75216;SDS011;63800;51.972;5.682;2023-12-29T15:04:40;9.25;;;3.05;;